Freeport, Iowa
Current Conditions -  °F | °C
As of 2:35 AM on Sunday 23 Nov 2014 (Local Time) from KDEH Reporting Station
Haze Haze  
Wind Chill: 50°   Ceiling: 700
Heat Index: 50°   Visibility: 4mi
Dew Point: 50°   Wind: 12mph
Humidity: 100%   Direction: 200°SSW
Pressure: 29.59"   Gusts: NA
Location:  43.3626°N, 91.8164°W
Report Text: KDEH 230835Z AUTO 20010KT 4SM BR OVC007 10/10 A2959 RMK AO2
Loading
Personal Weather Stations






























Interactive Weather Map New forecast layout! Learn more

10-Day Weather Forecast

Advertisements
Track Severe Weather on mobile